createdAt,value
2022-11-29T00:00:02.946Z,97477.53
2022-11-29T00:02:53.029Z,97479.78
2022-11-29T00:05:40.079Z,97485.59
2022-11-29T00:08:26.996Z,97475.00
2022-11-29T00:11:36.667Z,97473.47
2022-11-29T00:14:24.854Z,97472.47
2022-11-29T00:17:11.749Z,97476.41
2022-11-29T00:19:58.682Z,97480.56
2022-11-29T00:22:45.618Z,97478.16
2022-11-29T00:25:32.572Z,97479.16
2022-11-29T00:28:19.452Z,97477.94
2022-11-29T00:31:27.553Z,97465.34
2022-11-29T00:34:14.478Z,97465.63
2022-11-29T00:37:01.394Z,97461.75
2022-11-29T00:39:48.293Z,97470.34
2022-11-29T00:42:35.241Z,97467.63
2022-11-29T00:45:22.148Z,97464.72
2022-11-29T00:48:09.045Z,97462.53
2022-11-29T00:50:56.002Z,97464.72
2022-11-29T00:53:42.887Z,97461.69
2022-11-29T00:56:30.011Z,97459.22
2022-11-29T00:59:16.938Z,97467.81
2022-11-29T01:02:03.911Z,97464.66
2022-11-29T01:04:50.939Z,97462.34
2022-11-29T01:07:37.894Z,97459.22
2022-11-29T01:10:25.642Z,97464.63
2022-11-29T01:13:12.567Z,97469.28
2022-11-29T01:15:59.531Z,97468.31
2022-11-29T01:18:46.468Z,97463.16
2022-11-29T01:21:33.600Z,97473.94
2022-11-29T01:24:22.252Z,97477.13
2022-11-29T01:27:09.976Z,97477.09
2022-11-29T01:29:56.896Z,97473.66
2022-11-29T01:32:43.821Z,97473.88
2022-11-29T01:35:30.715Z,97475.34
2022-11-29T01:38:18.377Z,97473.09
2022-11-29T01:41:08.689Z,97471.06
2022-11-29T01:44:45.004Z,97470.63
2022-11-29T01:47:33.023Z,97469.38
2022-11-29T01:50:20.531Z,97462.03
2022-11-29T01:53:08.440Z,97472.97
2022-11-29T01:56:01.183Z,97468.31
2022-11-29T01:58:48.200Z,97474.91
2022-11-29T02:01:36.751Z,97481.13
2022-11-29T02:04:23.931Z,97468.88
2022-11-29T02:07:11.167Z,97469.09
2022-11-29T02:09:58.382Z,97463.69
2022-11-29T02:13:22.640Z,97467.41
2022-11-29T02:16:55.038Z,97471.19
2022-11-29T02:20:25.869Z,97465.81
2022-11-29T02:23:49.857Z,97472.47
2022-11-29T02:27:22.787Z,97468.63
2022-11-29T02:30:19.772Z,97476.00
2022-11-29T02:51:22.678Z,97478.50
2022-11-29T02:54:27.068Z,97489.44
2022-11-29T02:57:41.971Z,97477.69
2022-11-29T03:00:29.719Z,97493.75
2022-11-29T03:03:35.610Z,97491.19
2022-11-29T03:06:50.489Z,97493.91
2022-11-29T03:10:18.935Z,97489.91
2022-11-29T03:13:16.770Z,97488.59
2022-11-29T03:16:41.323Z,97492.19
2022-11-29T03:19:54.504Z,97499.16
2022-11-29T03:23:11.902Z,97505.97
2022-11-29T03:26:26.035Z,97501.34
2022-11-29T03:29:45.589Z,97513.63
2022-11-29T03:32:50.904Z,97513.06
2022-11-29T03:35:43.626Z,97507.25
2022-11-29T03:38:43.756Z,97514.84
2022-11-29T03:41:55.131Z,97518.78
2022-11-29T03:45:03.284Z,97521.09
2022-11-29T03:48:07.828Z,97523.50
2022-11-29T03:51:07.522Z,97516.88
2022-11-29T03:54:01.232Z,97523.50
2022-11-29T03:56:48.756Z,97520.44
2022-11-29T04:00:02.667Z,97518.00
2022-11-29T04:03:32.780Z,97527.97
2022-11-29T04:06:55.111Z,97523.78
2022-11-29T04:10:02.225Z,97524.59
2022-11-29T04:13:24.349Z,97533.13
2022-11-29T04:16:40.728Z,97529.81
2022-11-29T04:20:09.529Z,97534.22
2022-11-29T04:23:35.824Z,97533.31
2022-11-29T04:27:01.457Z,97539.38
2022-11-29T04:30:19.855Z,97534.50
2022-11-29T04:33:37.749Z,97534.88
2022-11-29T04:36:45.861Z,97540.66
2022-11-29T04:40:09.716Z,97551.72
2022-11-29T04:43:35.314Z,97543.06
2022-11-29T04:50:09.972Z,97548.59
2022-11-29T04:53:39.002Z,97544.47
2022-11-29T05:00:11.791Z,97549.78
2022-11-29T05:03:02.223Z,97551.41
2022-11-29T05:06:02.856Z,97556.75
2022-11-29T05:09:22.274Z,97556.34
2022-11-29T05:12:31.985Z,97556.25
2022-11-29T05:15:50.558Z,97555.00
2022-11-29T05:19:03.144Z,97560.56
2022-11-29T05:22:06.543Z,97566.72
2022-11-29T05:25:42.411Z,97564.38
2022-11-29T05:29:07.188Z,97569.84
2022-11-29T05:32:35.465Z,97570.28
2022-11-29T05:35:50.355Z,97568.59
2022-11-29T05:39:01.416Z,97579.94
2022-11-29T05:42:16.407Z,97575.25
2022-11-29T05:45:09.094Z,97574.78
2022-11-29T05:48:14.138Z,97577.41
2022-11-29T05:51:42.216Z,97580.78
2022-11-29T05:54:49.708Z,97584.25
2022-11-29T05:58:10.976Z,97583.28
2022-11-29T06:01:32.890Z,97590.91
2022-11-29T06:04:48.544Z,97587.56
2022-11-29T06:08:02.921Z,97594.84
2022-11-29T06:11:01.429Z,97592.66
2022-11-29T06:14:26.517Z,97586.25
2022-11-29T06:18:23.060Z,97587.75
2022-11-29T06:21:40.789Z,97592.97
2022-11-29T06:25:10.649Z,97594.50
2022-11-29T06:28:40.507Z,97584.88
2022-11-29T06:31:39.621Z,97596.69
2022-11-29T06:34:59.247Z,97590.78
2022-11-29T06:37:50.714Z,97586.13
2022-11-29T06:40:37.856Z,97590.78
2022-11-29T06:43:28.735Z,97591.06
2022-11-29T06:46:40.328Z,97597.84
2022-11-29T06:49:31.073Z,97600.84
2022-11-29T06:52:47.192Z,97610.50
2022-11-29T06:55:46.513Z,97617.63
2022-11-29T06:58:47.908Z,97623.19
2022-11-29T07:01:56.085Z,97618.50
2022-11-29T07:05:18.173Z,97619.69
2022-11-29T07:08:11.389Z,97623.53
2022-11-29T07:10:59.633Z,97625.25
2022-11-29T07:13:47.054Z,97630.94
2022-11-29T07:16:57.039Z,97631.13
2022-11-29T07:20:19.280Z,97638.00
2022-11-29T07:23:21.819Z,97626.72
2022-11-29T07:26:44.973Z,97634.25
2022-11-29T07:30:09.212Z,97636.94
2022-11-29T07:33:16.008Z,97627.88
2022-11-29T07:36:49.127Z,97625.84
2022-11-29T07:40:13.932Z,97634.16
2022-11-29T07:43:42.401Z,97629.97
2022-11-29T07:46:29.429Z,97638.69
2022-11-29T07:49:16.485Z,97633.69
2022-11-29T07:52:03.531Z,97633.34
2022-11-29T07:54:50.492Z,97636.28
2022-11-29T07:57:37.385Z,97633.84
2022-11-29T08:00:24.466Z,97635.31
2022-11-29T08:03:11.726Z,97634.53
2022-11-29T08:05:58.684Z,97636.25
2022-11-29T08:08:45.640Z,97635.97
2022-11-29T08:11:32.728Z,97639.59
2022-11-29T08:14:19.628Z,97641.97
2022-11-29T08:17:06.608Z,97646.84
2022-11-29T08:19:53.519Z,97643.81
2022-11-29T08:22:40.531Z,97643.78
2022-11-29T08:25:28.144Z,97642.97
2022-11-29T08:28:15.052Z,97646.13
2022-11-29T08:31:07.723Z,97648.78
2022-11-29T08:33:54.709Z,97646.75
2022-11-29T08:36:41.639Z,97646.63
2022-11-29T08:39:28.626Z,97653.78
2022-11-29T08:42:15.536Z,97656.50
2022-11-29T08:45:02.476Z,97654.97
2022-11-29T08:47:49.372Z,97654.22
2022-11-29T08:50:36.281Z,97657.72
2022-11-29T08:53:42.307Z,97657.72
2022-11-29T08:57:16.645Z,97663.63
2022-11-29T08:59:36.216Z,97677.09
2022-11-29T09:02:23.242Z,97670.66
2022-11-29T09:05:11.089Z,97672.78
2022-11-29T09:07:58.552Z,97666.91
2022-11-29T09:10:45.809Z,97671.34
2022-11-29T09:13:32.715Z,97669.81
2022-11-29T09:16:22.495Z,97670.88
2022-11-29T09:19:10.248Z,97667.81
2022-11-29T09:21:57.172Z,97677.22
2022-11-29T09:24:44.583Z,97676.00
2022-11-29T09:27:31.619Z,97675.19
2022-11-29T09:30:23.461Z,97672.91
2022-11-29T09:33:10.720Z,97670.38
2022-11-29T09:35:58.656Z,97674.91
2022-11-29T09:38:45.682Z,97672.72
2022-11-29T09:41:48.512Z,97671.56
2022-11-29T09:44:55.803Z,97666.06
2022-11-29T09:48:01.589Z,97661.81
2022-11-29T09:51:04.185Z,97666.16
2022-11-29T09:54:31.503Z,97663.78
2022-11-29T09:57:19.717Z,97670.53
2022-11-29T10:00:15.750Z,97667.25
2022-11-29T10:03:13.881Z,97661.75
2022-11-29T10:06:08.893Z,97661.56
2022-11-29T10:09:02.474Z,97664.28
2022-11-29T10:12:19.991Z,97656.09
2022-11-29T10:15:14.072Z,97655.06
2022-11-29T10:18:38.498Z,97650.63
2022-11-29T10:21:30.626Z,97643.72
2022-11-29T10:24:22.959Z,97645.78
2022-11-29T10:27:19.721Z,97647.75
2022-11-29T10:30:14.086Z,97656.81
2022-11-29T10:33:01.116Z,97655.94
2022-11-29T10:35:50.541Z,97652.56
2022-11-29T10:38:37.480Z,97651.78
2022-11-29T10:41:25.445Z,97650.75
2022-11-29T10:44:14.425Z,97646.19
2022-11-29T10:47:10.458Z,97634.03
2022-11-29T10:49:58.525Z,97639.47
2022-11-29T10:52:45.434Z,97633.53
2022-11-29T10:55:40.401Z,97637.44
2022-11-29T10:58:29.770Z,97641.38
2022-11-29T11:01:17.057Z,97636.13
2022-11-29T11:04:07.430Z,97643.53
2022-11-29T11:07:01.433Z,97633.66
2022-11-29T11:09:50.913Z,97633.44
2022-11-29T11:12:37.880Z,97647.28
2022-11-29T11:15:30.348Z,97633.13
2022-11-29T11:18:22.790Z,97637.69
2022-11-29T11:21:12.909Z,97634.28
2022-11-29T11:24:02.954Z,97639.88
2022-11-29T11:26:49.935Z,97636.44
2022-11-29T11:29:41.016Z,97629.72
2022-11-29T11:32:28.428Z,97623.69
2022-11-29T11:35:24.097Z,97632.44
2022-11-29T11:38:19.778Z,97625.13
2022-11-29T11:41:17.662Z,97625.56
2022-11-29T11:44:49.162Z,97626.09
2022-11-29T11:47:57.538Z,97632.22
2022-11-29T11:50:51.139Z,97623.50
2022-11-29T11:53:38.643Z,97626.31
2022-11-29T11:56:35.590Z,97625.66
2022-11-29T11:59:26.349Z,97623.91
2022-11-29T12:02:48.659Z,97624.22
2022-11-29T12:05:35.692Z,97626.81
2022-11-29T12:08:24.079Z,97627.53
2022-11-29T12:11:15.340Z,97628.06
2022-11-29T12:14:05.129Z,97633.88
2022-11-29T12:17:01.152Z,97627.19
2022-11-29T12:20:34.482Z,97629.63
2022-11-29T12:23:58.297Z,97638.97
2022-11-29T12:27:00.900Z,97651.25
2022-11-29T12:29:47.916Z,97641.25
2022-11-29T12:33:03.267Z,97630.59
2022-11-29T12:36:00.449Z,97635.22
2022-11-29T12:39:33.539Z,97638.13
2022-11-29T12:42:40.819Z,97639.47
2022-11-29T12:45:41.334Z,97634.03
2022-11-29T12:49:17.711Z,97633.84
2022-11-29T12:52:25.691Z,97635.22
2022-11-29T12:55:39.510Z,97624.69
2022-11-29T12:59:11.217Z,97631.88
2022-11-29T13:02:27.151Z,97630.00
2022-11-29T13:05:29.853Z,97634.22
2022-11-29T13:09:12.296Z,97633.00
2022-11-29T13:12:13.040Z,97629.22
2022-11-29T13:15:44.951Z,97636.84
2022-11-29T13:47:58.416Z,97647.41
2022-11-29T13:50:46.718Z,97654.19
2022-11-29T13:53:48.668Z,97653.59
2022-11-29T13:56:46.020Z,97656.00
2022-11-29T13:59:36.074Z,97657.03
2022-11-29T14:02:31.236Z,97661.81
2022-11-29T14:05:28.969Z,97657.41
2022-11-29T14:09:19.359Z,97671.69
2022-11-29T14:12:39.777Z,97667.88
2022-11-29T14:15:31.154Z,97672.94
2022-11-29T14:18:47.888Z,97674.31
2022-11-29T14:22:17.085Z,97662.91
2022-11-29T14:25:49.927Z,97654.88
2022-11-29T14:28:39.110Z,97661.00
2022-11-29T14:31:53.301Z,97669.84
2022-11-29T14:34:45.930Z,97674.53
2022-11-29T14:37:51.220Z,97666.66
2022-11-29T14:41:13.925Z,97671.16
2022-11-29T14:44:34.088Z,97670.81
2022-11-29T14:47:31.850Z,97666.50
2022-11-29T14:50:36.942Z,97659.84
2022-11-29T14:53:35.680Z,97665.41
2022-11-29T14:56:38.899Z,97669.19
2022-11-29T14:59:44.292Z,97678.84
2022-11-29T15:02:45.543Z,97692.81
2022-11-29T15:06:00.517Z,97698.06
2022-11-29T15:09:06.188Z,97700.34
2022-11-29T15:11:58.833Z,97700.34
2022-11-29T15:15:35.402Z,97701.31
2022-11-29T15:18:37.352Z,97712.47
2022-11-29T15:21:48.815Z,97714.72
2022-11-29T15:25:00.253Z,97724.81
2022-11-29T15:27:55.233Z,97726.13
2022-11-29T15:30:42.779Z,97720.81
2022-11-29T15:33:29.882Z,97723.22
2022-11-29T15:36:23.304Z,97726.94
2022-11-29T15:39:28.782Z,97720.06
2022-11-29T15:42:15.941Z,97720.84
2022-11-29T15:45:39.393Z,97717.91
2022-11-29T15:48:31.935Z,97722.53
2022-11-29T15:51:31.375Z,97720.06
2022-11-29T15:54:42.004Z,97717.06
2022-11-29T15:57:49.773Z,97716.63
2022-11-29T16:00:36.991Z,97719.41
2022-11-29T16:03:26.873Z,97715.44
2022-11-29T16:06:52.103Z,97719.16
2022-11-29T16:09:42.933Z,97719.44
2022-11-29T16:12:29.993Z,97724.13
2022-11-29T16:15:30.140Z,97731.84
2022-11-29T16:18:23.467Z,97728.13
2022-11-29T16:21:43.511Z,97730.66
2022-11-29T16:24:33.897Z,97737.81
2022-11-29T16:27:21.863Z,97741.53
2022-11-29T16:30:21.589Z,97744.97
2022-11-29T16:33:21.286Z,97743.28
2022-11-29T16:36:36.042Z,97746.25
2022-11-29T16:39:24.298Z,97748.34
2022-11-29T16:42:25.907Z,97749.06
2022-11-29T16:45:36.358Z,97754.94
2022-11-29T16:48:38.194Z,97754.25
2022-11-29T16:51:32.365Z,97756.00
2022-11-29T16:54:27.823Z,97769.81
2022-11-29T16:57:14.868Z,97764.72
2022-11-29T17:00:02.017Z,97773.75
2022-11-29T17:02:49.201Z,97768.81
2022-11-29T17:05:40.252Z,97773.38
2022-11-29T17:08:30.656Z,97769.03
2022-11-29T17:11:17.719Z,97761.41
2022-11-29T17:14:04.582Z,97775.41
2022-11-29T17:16:52.100Z,97777.81
2022-11-29T17:19:39.133Z,97773.69
2022-11-29T17:22:26.061Z,97781.63
2022-11-29T17:25:13.056Z,97777.69
2022-11-29T17:28:00.023Z,97780.63
2022-11-29T17:30:46.925Z,97782.13
2022-11-29T17:33:33.802Z,97782.88
2022-11-29T17:36:21.710Z,97781.63
2022-11-29T17:39:08.856Z,97790.47
2022-11-29T17:41:55.900Z,97787.75
2022-11-29T17:44:42.894Z,97787.56
2022-11-29T17:47:29.794Z,97789.28
2022-11-29T17:50:17.040Z,97795.81
2022-11-29T17:53:03.960Z,97789.72
2022-11-29T17:55:50.869Z,97799.56
2022-11-29T17:58:39.082Z,97803.47
2022-11-29T18:01:29.500Z,97803.78
2022-11-29T18:04:16.718Z,97799.66
2022-11-29T18:07:03.616Z,97801.06
2022-11-29T18:09:50.940Z,97802.25
2022-11-29T18:12:37.869Z,97806.94
2022-11-29T18:15:24.876Z,97806.25
2022-11-29T18:18:11.752Z,97806.72
2022-11-29T18:21:03.442Z,97806.56
2022-11-29T18:23:50.753Z,97807.78
2022-11-29T18:26:38.747Z,97807.78
2022-11-29T18:29:25.664Z,97811.50
2022-11-29T18:32:12.605Z,97831.13
2022-11-29T18:35:01.597Z,97829.63
2022-11-29T18:38:14.155Z,97822.53
2022-11-29T18:40:55.332Z,97825.25
2022-11-29T18:43:42.498Z,97822.59
2022-11-29T18:46:33.041Z,97838.81
2022-11-29T18:49:20.047Z,97830.00
2022-11-29T18:52:06.992Z,97846.34
2022-11-29T18:54:54.034Z,97831.91
2022-11-29T18:57:41.201Z,97841.00
2022-11-29T19:00:28.206Z,97846.63
2022-11-29T19:03:15.124Z,97838.75
2022-11-29T19:06:04.257Z,97831.59
2022-11-29T19:08:51.903Z,97835.78
2022-11-29T19:11:39.233Z,97832.38
2022-11-29T19:14:26.175Z,97838.19
2022-11-29T19:17:13.080Z,97842.84
2022-11-29T19:20:00.218Z,97856.84
2022-11-29T19:22:47.797Z,97850.03
2022-11-29T19:25:34.989Z,97848.03
2022-11-29T19:28:21.879Z,97850.94
2022-11-29T19:31:10.182Z,97863.47
2022-11-29T19:33:58.188Z,97862.72
2022-11-29T19:36:45.549Z,97862.50
2022-11-29T19:39:33.931Z,97865.94
2022-11-29T19:42:22.238Z,97867.84
2022-11-29T19:45:18.696Z,97864.88
2022-11-29T19:48:05.855Z,97862.44
2022-11-29T19:50:52.897Z,97864.44
2022-11-29T19:53:40.289Z,97866.66
2022-11-29T19:56:28.926Z,97871.06
2022-11-29T19:59:15.901Z,97876.75
2022-11-29T20:02:02.992Z,97881.97
2022-11-29T20:04:50.398Z,97882.22
2022-11-29T20:07:37.345Z,97874.84
2022-11-29T20:10:24.746Z,97883.41
2022-11-29T20:13:11.641Z,97884.63
2022-11-29T20:16:06.853Z,97888.06
2022-11-29T20:18:56.716Z,97890.25
2022-11-29T20:21:47.647Z,97894.47
2022-11-29T20:24:40.060Z,97898.41
2022-11-29T20:27:30.903Z,97899.66
2022-11-29T20:30:17.963Z,97888.41
2022-11-29T20:33:05.102Z,97897.25
2022-11-29T20:36:05.415Z,97897.06
2022-11-29T20:39:11.605Z,97895.88
2022-11-29T20:42:23.645Z,97902.97
2022-11-29T20:45:12.647Z,97895.38
2022-11-29T20:48:22.396Z,97896.84
2022-11-29T20:51:10.854Z,97899.53
2022-11-29T20:53:58.905Z,97905.44
2022-11-29T20:56:45.806Z,97908.63
2022-11-29T20:59:32.718Z,97905.69
2022-11-29T21:02:20.657Z,97899.31
2022-11-29T21:05:08.070Z,97902.69
2022-11-29T21:07:55.013Z,97900.28
2022-11-29T21:10:42.207Z,97896.16
2022-11-29T21:13:29.488Z,97901.31
2022-11-29T21:16:16.906Z,97896.84
2022-11-29T21:19:04.354Z,97906.66
2022-11-29T21:22:08.340Z,97897.59
2022-11-29T21:25:36.584Z,97894.88
2022-11-29T21:28:30.306Z,97903.03
2022-11-29T21:31:18.875Z,97909.16
2022-11-29T21:34:05.821Z,97898.59
2022-11-29T21:36:58.226Z,97894.91
2022-11-29T21:39:45.397Z,97900.84
2022-11-29T21:42:32.309Z,97904.47
2022-11-29T21:45:19.460Z,97905.44
2022-11-29T21:48:29.060Z,97906.19
2022-11-29T21:51:16.003Z,97909.13
2022-11-29T21:54:03.113Z,97906.63
2022-11-29T21:56:50.210Z,97907.19
2022-11-29T21:59:37.210Z,97912.06
2022-11-29T22:02:24.220Z,97905.91
2022-11-29T22:05:11.139Z,97899.78
2022-11-29T22:07:58.107Z,97901.97
2022-11-29T22:10:45.064Z,97907.13
2022-11-29T22:13:32.082Z,97909.31
2022-11-29T22:16:18.990Z,97908.13
2022-11-29T22:19:05.919Z,97910.81
2022-11-29T22:22:00.370Z,97904.44
2022-11-29T22:24:47.772Z,97898.31
2022-11-29T22:27:34.879Z,97896.13
2022-11-29T22:30:21.828Z,97896.81
2022-11-29T22:33:13.150Z,97903.44
2022-11-29T22:36:18.579Z,97898.34
2022-11-29T22:39:06.752Z,97896.88
2022-11-29T22:41:54.933Z,97896.91
2022-11-29T22:44:42.221Z,97891.28
2022-11-29T22:47:29.098Z,97891.28
2022-11-29T22:50:16.138Z,97892.25
2022-11-29T22:53:02.991Z,97892.50
2022-11-29T22:55:49.909Z,97888.56
2022-11-29T22:58:37.433Z,97879.72
2022-11-29T23:01:29.178Z,97893.22
2022-11-29T23:04:16.106Z,97898.38
2022-11-29T23:07:03.028Z,97898.13
2022-11-29T23:09:49.915Z,97901.09
2022-11-29T23:12:36.848Z,97894.47
2022-11-29T23:15:23.848Z,97895.44
2022-11-29T23:18:11.043Z,97908.88
2022-11-29T23:21:25.160Z,97896.84
2022-11-29T23:24:12.830Z,97905.94
2022-11-29T23:26:59.750Z,97902.28
2022-11-29T23:29:46.878Z,97904.25
2022-11-29T23:32:33.806Z,97901.09
2022-11-29T23:35:20.862Z,97904.00
2022-11-29T23:38:07.931Z,97903.03
2022-11-29T23:40:55.917Z,97907.44
2022-11-29T23:43:43.087Z,97900.03
2022-11-29T23:46:30.051Z,97896.13
2022-11-29T23:49:16.993Z,97904.69
2022-11-29T23:52:04.054Z,97903.50
2022-11-29T23:54:50.957Z,97906.91
2022-11-29T23:57:37.949Z,97901.28
